• LFSB

    METAR de LFSB (émis le 2024/05/18 12:00 UTC):
    LFSB 181200Z AUTO 01003KT 300V110 9999 FEW050/// BKN130/// ///CB 21/10 Q1011 TEMPO 33015KT 3000 TSRA NSC

    TAF de LFSB (émis le 2024/05/18 12:44 UTC):
    LFSB 181100Z 1812/1912 31006KT CAVOK PROB40 TEMPO 1813/1818 33015KT SHRA FEW030CB PROB30 TEMPO 1813/1816 3000 TSRA BECMG 1818/1821 16004KT BECMG 1908/1911 27012KT
  • LFSX

    METAR de LFSX (émis le 2024/05/18 12:00 UTC):
    LFSX 181200Z AUTO 31004KT 240V350 9999 SCT039 BKN066 BKN078 21/12 Q1012

    TAF de LFSX (émis le 2024/05/17 13:33 UTC):
    LFSX 171326Z 1713/1809 CNL
  • LFSD

    METAR de LFSD (émis le 2024/05/18 12:00 UTC):
    LFSD 181200Z AUTO 22005KT 180V260 9999 -RA ///CB 16/12 Q1012

    TAF de LFSD (émis le 2015/06/01 00:11 UTC):
    LFSD 010600Z 0100/0124 CNL
  • LFGJ

    METAR de LFGJ (émis le 2024/05/18 12:00 UTC):
    LFGJ 181200Z AUTO 23008KT 200V260 9999 TSRA SCT020/// BKN029/// BKN041/// ///CB 16/14 Q1013 TEMPO SHRA

    TAF COURT de LFGJ
    (émis le 2024/05/18 12:58 UTC):
    TAF AMD LFGJ 181154Z 1812/1821 VRB04KT CAVOK TEMPO 1812/1818 SHRA FEW030CB PROB40 TEMPO 1812/1817 2000 TSRA
  • LFJL

    METAR de LFJL (émis le 2024/05/18 12:00 UTC):
    LFJL 181200Z AUTO 32006KT 280V360 9999 FEW030 SCT035 18/12 Q1012 NOSIG

    TAF de LFJL (émis le 2024/05/18 12:58 UTC):
    LFJL 181100Z 1812/1912 29006KT 9999 BKN035 TEMPO 1814/1817 SHRA FEW030CB BECMG 1819/1821 18006KT TEMPO 1823/1906 3000 BR BKN001 PROB40 TEMPO 1903/1906 0600 FG VV/// BECMG 1906/1908 6000 NSW BKN010 BECMG 1909/1910 SCT020 TEMPO 1910/1912 SHRA FEW025CB
  • LFST

    METAR de LFST (émis le 2024/05/18 12:00 UTC):
    LFST 181200Z AUTO VRB02KT CAVOK 21/11 Q1011 NOSIG

    TAF de LFST (émis le 2024/05/18 12:44 UTC):
    LFST 181100Z 1812/1912 VRB06KT 9999 SCT045 TEMPO 1814/1819 SHRA FEW035CB PROB40 TEMPO 1814/1818 VRB15KT 3000 TSRA PROB30 TEMPO 1817/1819 22015G31KT PROB40 TEMPO 1909/1912 SHRA BKN012 FEW020CB